createdAt,value
2016-05-17T00:00:21.687Z,1016.94
2016-05-17T00:01:21.690Z,1016.92
2016-05-17T00:02:34.443Z,1016.94
2016-05-17T00:03:21.742Z,1016.93
2016-05-17T00:04:21.745Z,1016.92
2016-05-17T00:05:21.763Z,1016.91
2016-05-17T00:06:21.781Z,1016.92
2016-05-17T00:07:21.800Z,1016.92
2016-05-17T00:08:21.818Z,1016.94
2016-05-17T00:09:21.836Z,1016.9
2016-05-17T00:10:21.839Z,1016.93
2016-05-17T00:11:41.061Z,1016.93
2016-05-17T00:12:41.080Z,1016.95
2016-05-17T00:14:21.913Z,1016.94
2016-05-17T00:15:22.274Z,1016.91
2016-05-17T00:16:21.933Z,1016.96
2016-05-17T00:17:21.968Z,1016.92
2016-05-17T00:18:34.720Z,1016.9
2016-05-17T00:19:22.005Z,1016.91
2016-05-17T00:20:22.023Z,1016.92
2016-05-17T00:21:41.760Z,1016.91
2016-05-17T00:22:22.060Z,1016.86
2016-05-17T00:23:37.140Z,1016.91
2016-05-17T00:24:37.159Z,1016.82
2016-05-17T00:25:37.176Z,1016.85
2016-05-17T00:26:37.195Z,1016.88
2016-05-17T00:27:40.245Z,1016.88
2016-05-17T00:28:37.232Z,1016.89
2016-05-17T00:29:37.265Z,1016.91
2016-05-17T00:30:50.003Z,1016.88
2016-05-17T00:31:37.270Z,1016.85
2016-05-17T00:33:02.962Z,1016.86
2016-05-17T00:33:37.308Z,1016.84
2016-05-17T00:34:37.341Z,1016.86
2016-05-17T00:35:50.078Z,1016.85
2016-05-17T00:36:37.487Z,1016.85
2016-05-17T00:37:37.381Z,1016.83
2016-05-17T00:38:37.400Z,1016.85
2016-05-17T00:39:37.417Z,1016.83
2016-05-17T00:40:50.170Z,1016.81
2016-05-17T00:41:37.454Z,1016.77
2016-05-17T00:42:37.457Z,1016.78
2016-05-17T00:43:37.491Z,1016.76
2016-05-17T00:44:37.509Z,1016.75
2016-05-17T00:45:37.512Z,1016.76
2016-05-17T00:46:50.343Z,1016.75
2016-05-17T00:47:37.549Z,1016.72
2016-05-17T00:49:03.239Z,1016.73
2016-05-17T00:49:37.585Z,1016.68
2016-05-17T00:50:37.603Z,1016.7
2016-05-17T00:51:37.637Z,1016.7
2016-05-17T00:52:37.624Z,1016.74
2016-05-17T00:53:37.643Z,1016.75
2016-05-17T00:54:37.660Z,1016.73
2016-05-17T00:55:37.679Z,1016.73
2016-05-17T00:56:39.120Z,1016.76
2016-05-17T00:57:37.715Z,1016.72
2016-05-17T00:58:37.734Z,1016.78
2016-05-17T00:59:37.753Z,1016.75
2016-05-17T01:00:37.756Z,1016.76
2016-05-17T01:01:56.993Z,1016.72
2016-05-17T01:02:39.214Z,1016.7
2016-05-17T01:03:37.826Z,1016.73
2016-05-17T01:04:37.844Z,1016.73
2016-05-17T01:05:37.862Z,1016.72
2016-05-17T01:06:37.880Z,1016.72
2016-05-17T01:07:37.884Z,1016.71
2016-05-17T01:08:37.902Z,1016.69
2016-05-17T01:09:37.936Z,1016.73
2016-05-17T01:10:37.954Z,1016.69
2016-05-17T01:11:50.691Z,1016.73
2016-05-17T01:12:37.975Z,1016.68
2016-05-17T01:13:37.978Z,1016.68
2016-05-17T01:14:38.011Z,1016.71
2016-05-17T01:15:57.233Z,1016.7
2016-05-17T01:16:38.049Z,1016.74
2016-05-17T01:18:38.085Z,1016.69
2016-05-17T01:19:38.088Z,1016.71
2016-05-17T01:20:57.325Z,1016.68
2016-05-17T01:21:38.140Z,1016.66
2016-05-17T01:22:38.143Z,1016.66
2016-05-17T01:23:38.160Z,1016.68
2016-05-17T01:24:38.179Z,1016.7
2016-05-17T01:25:38.198Z,1016.68
2016-05-17T01:26:38.216Z,1016.74
2016-05-17T01:27:41.265Z,1016.73
2016-05-17T01:28:38.237Z,1016.72
2016-05-17T01:29:38.254Z,1016.72
2016-05-17T01:31:03.945Z,1016.68
2016-05-17T01:31:38.292Z,1016.64
2016-05-17T01:33:38.329Z,1016.64
2016-05-17T01:34:38.347Z,1016.65
2016-05-17T01:35:38.365Z,1016.65
2016-05-17T01:36:38.384Z,1016.62
2016-05-17T01:37:38.401Z,1016.63
2016-05-17T01:38:38.420Z,1016.65
2016-05-17T01:39:38.438Z,1016.61
2016-05-17T01:40:38.456Z,1016.57
2016-05-17T01:41:38.475Z,1016.58
2016-05-17T01:42:38.494Z,1016.51
2016-05-17T01:43:38.496Z,1016.53
2016-05-17T01:44:38.561Z,1016.54
2016-05-17T01:45:38.532Z,1016.5
2016-05-17T01:46:38.550Z,1016.5
2016-05-17T01:47:38.569Z,1016.46
2016-05-17T01:48:38.587Z,1016.43
2016-05-17T01:49:38.606Z,1016.45
2016-05-17T01:50:38.624Z,1016.49
2016-05-17T01:51:38.643Z,1016.5
2016-05-17T01:52:38.661Z,1016.48
2016-05-17T01:53:38.679Z,1016.48
2016-05-17T01:54:51.432Z,1016.45
2016-05-17T01:55:38.699Z,1016.45
2016-05-17T01:56:38.718Z,1016.4
2016-05-17T01:57:38.737Z,1016.36
2016-05-17T01:58:38.755Z,1016.38
2016-05-17T01:59:38.835Z,1016.36
2016-05-17T02:00:38.792Z,1016.34
2016-05-17T02:01:38.810Z,1016.36
2016-05-17T02:02:38.828Z,1016.34
2016-05-17T02:03:38.846Z,1016.32
2016-05-17T02:04:38.864Z,1016.32
2016-05-17T02:05:38.868Z,1016.31
2016-05-17T02:06:40.308Z,1016.3
2016-05-17T02:07:38.904Z,1016.32
2016-05-17T02:08:49.923Z,1016.32
2016-05-17T02:09:49.941Z,1016.31
2016-05-17T02:10:49.944Z,1016.29
2016-05-17T02:11:51.384Z,1016.27
2016-05-17T02:12:49.995Z,1016.22
2016-05-17T02:13:50.014Z,1016.23
2016-05-17T02:14:50.033Z,1016.21
2016-05-17T02:15:50.035Z,1016.23
2016-05-17T02:16:50.053Z,1016.2
2016-05-17T02:17:50.072Z,1016.24
2016-05-17T02:18:50.090Z,1016.23
2016-05-17T02:19:50.125Z,1016.21
2016-05-17T02:20:50.126Z,1016.23
2016-05-17T02:21:50.551Z,1016.25
2016-05-17T02:22:50.163Z,1016.22
2016-05-17T02:24:02.916Z,1016.23
2016-05-17T02:24:50.185Z,1016.17
2016-05-17T02:25:50.202Z,1016.18
2016-05-17T02:26:50.237Z,1016.18
2016-05-17T02:27:50.240Z,1016.2
2016-05-17T02:28:50.257Z,1016.21
2016-05-17T02:29:50.276Z,1016.24
2016-05-17T02:31:03.029Z,1016.21
2016-05-17T02:31:50.313Z,1016.25
2016-05-17T02:32:50.315Z,1016.24
2016-05-17T02:33:50.349Z,1016.19
2016-05-17T02:34:50.429Z,1016.2
2016-05-17T02:35:50.448Z,1016.19
2016-05-17T02:37:03.122Z,1016.2
2016-05-17T02:37:50.407Z,1016.19
2016-05-17T02:38:50.487Z,1016.18
2016-05-17T02:39:50.443Z,1016.22
2016-05-17T02:40:50.540Z,1016.21
2016-05-17T02:41:50.480Z,1016.25
2016-05-17T02:42:50.498Z,1016.23
2016-05-17T02:43:50.516Z,1016.26
2016-05-17T02:44:50.550Z,1016.23
2016-05-17T02:45:50.600Z,1016.24
2016-05-17T02:47:03.291Z,1016.23
2016-05-17T02:48:03.309Z,1016.19
2016-05-17T02:49:09.796Z,1016.2
2016-05-17T02:49:50.610Z,1016.19
2016-05-17T02:50:50.629Z,1016.18
2016-05-17T02:51:50.648Z,1016.2
2016-05-17T02:52:50.666Z,1016.26
2016-05-17T02:53:50.669Z,1016.26
2016-05-17T02:54:50.687Z,1016.2
2016-05-17T02:56:03.455Z,1016.17
2016-05-17T02:56:53.755Z,1016.2
2016-05-17T02:57:50.741Z,1016.23
2016-05-17T02:58:57.026Z,1016.22
2016-05-17T02:59:50.779Z,1016.22
2016-05-17T03:00:50.797Z,1016.18
2016-05-17T03:01:50.815Z,1016.15
2016-05-17T03:02:50.834Z,1016.13
2016-05-17T03:03:50.851Z,1016.16
2016-05-17T03:05:03.589Z,1016.1
2016-05-17T03:05:50.873Z,1016.18
2016-05-17T03:07:16.581Z,1016.16
2016-05-17T03:07:50.909Z,1016.15
2016-05-17T03:08:50.928Z,1016.19
2016-05-17T03:09:50.945Z,1016.14
2016-05-17T03:11:00.433Z,1016.1
2016-05-17T03:12:00.451Z,1016.15
2016-05-17T03:13:19.675Z,1016.18
2016-05-17T03:14:19.694Z,1016.17
2016-05-17T03:15:26.180Z,1016.18
2016-05-17T03:16:00.508Z,1016.15
2016-05-17T03:17:00.543Z,1016.14
2016-05-17T03:18:00.561Z,1016.13
2016-05-17T03:19:00.564Z,1016.16
2016-05-17T03:20:00.583Z,1016.15
2016-05-17T03:21:19.821Z,1016.09
2016-05-17T03:22:00.634Z,1016.12
2016-05-17T03:23:00.637Z,1016.1
2016-05-17T03:24:00.655Z,1016.1
2016-05-17T03:25:00.674Z,1016.09
2016-05-17T03:26:00.691Z,1016.05
2016-05-17T03:27:13.447Z,1016.04
2016-05-17T03:28:26.404Z,1016.09
2016-05-17T03:29:19.952Z,1016.07
2016-05-17T03:30:35.596Z,1016.06
2016-05-17T03:31:35.614Z,1016.05
2016-05-17T03:32:35.633Z,1016.05
2016-05-17T03:33:48.386Z,1016.02
2016-05-17T03:34:48.404Z,1016.05
2016-05-17T03:35:54.891Z,1016
2016-05-17T03:37:01.362Z,1016.04
2016-05-17T03:38:11.053Z,1016.03
2016-05-17T03:39:17.293Z,1016.01
2016-05-17T03:40:11.027Z,1015.98
2016-05-17T03:41:30.267Z,1016.01
2016-05-17T03:42:23.800Z,1016
2016-05-17T03:44:13.947Z,1015.99
2016-05-17T03:45:13.964Z,1016
2016-05-17T03:46:23.655Z,1016.03
2016-05-17T03:48:45.161Z,1016
2016-05-17T03:50:04.585Z,1015.96
2016-05-17T03:52:03.497Z,1016.01
2016-05-17T03:53:03.530Z,1016.01
2016-05-17T03:55:18.632Z,1016.01
2016-05-17T03:56:18.666Z,1016.02
2016-05-17T03:58:35.327Z,1015.99
2016-05-17T03:59:35.346Z,1015.99
2016-05-17T04:00:35.365Z,1016
2016-05-17T04:01:54.585Z,1015.99
2016-05-17T04:02:35.401Z,1016.03
2016-05-17T04:03:35.418Z,1015.95
2016-05-17T04:04:54.641Z,1015.99
2016-05-17T04:05:35.441Z,1015.95
2016-05-17T04:07:44.774Z,1015.95
2016-05-17T04:08:44.807Z,1015.96
2016-05-17T04:09:44.810Z,1015.93
2016-05-17T04:10:57.562Z,1015.95
2016-05-17T04:11:44.862Z,1015.92
2016-05-17T04:13:10.553Z,1015.93
2016-05-17T04:13:57.618Z,1015.94
2016-05-17T04:14:44.902Z,1015.92
2016-05-17T04:16:00.139Z,1015.93
2016-05-17T04:17:00.142Z,1015.89
2016-05-17T04:19:16.836Z,1015.88
2016-05-17T04:20:42.528Z,1015.86
2016-05-17T04:21:26.484Z,1015.88
2016-05-17T04:22:26.502Z,1015.89
2016-05-17T04:23:26.520Z,1015.91
2016-05-17T04:24:41.616Z,1015.9
2016-05-17T04:25:41.619Z,1015.88
2016-05-17T04:27:56.874Z,1015.85
2016-05-17T04:28:56.908Z,1015.84
2016-05-17T04:31:12.163Z,1015.94
2016-05-17T04:32:12.198Z,1015.94
2016-05-17T04:33:31.421Z,1015.88
2016-05-17T04:34:18.268Z,1015.89
2016-05-17T04:35:27.926Z,1015.89
2016-05-17T04:36:27.930Z,1015.89
2016-05-17T04:38:43.185Z,1015.87
2016-05-17T04:39:43.220Z,1015.88
2016-05-17T04:41:58.459Z,1015.83
2016-05-17T04:42:58.477Z,1015.83
2016-05-17T04:45:04.826Z,1015.89
2016-05-17T04:46:04.845Z,1015.89
2016-05-17T04:47:14.491Z,1015.84
2016-05-17T04:49:17.417Z,1015.86
2016-05-17T04:50:17.420Z,1015.88
2016-05-17T04:51:32.547Z,1015.83
2016-05-17T04:52:32.551Z,1015.85
2016-05-17T04:53:32.586Z,1015.83
2016-05-17T04:54:32.603Z,1015.83
2016-05-17T04:55:32.606Z,1015.78
2016-05-17T04:56:32.624Z,1015.74
2016-05-17T04:57:32.643Z,1015.73
2016-05-17T04:58:45.396Z,1015.73
2016-05-17T04:59:32.679Z,1015.74
2016-05-17T05:00:58.385Z,1015.78
2016-05-17T05:01:42.357Z,1015.77
2016-05-17T05:02:42.375Z,1015.73
2016-05-17T05:05:23.148Z,1015.71
2016-05-17T05:05:57.492Z,1015.72
2016-05-17T05:06:57.776Z,1015.72
2016-05-17T05:07:57.528Z,1015.74
2016-05-17T05:08:57.687Z,1015.71
2016-05-17T05:09:57.587Z,1015.75
2016-05-17T05:10:57.648Z,1015.71
2016-05-17T05:11:57.709Z,1015.72
2016-05-17T05:12:57.770Z,1015.75
2016-05-17T05:13:57.832Z,1015.68
2016-05-17T05:14:57.879Z,1015.72
2016-05-17T05:15:57.897Z,1015.77
2016-05-17T05:17:17.183Z,1015.88
2016-05-17T05:17:57.996Z,1015.76
2016-05-17T05:18:58.015Z,1015.98
2016-05-17T05:19:58.043Z,1015.82
2016-05-17T05:20:58.083Z,1015.83
2016-05-17T05:22:22.786Z,1015.84
2016-05-17T05:23:28.981Z,1015.85
2016-05-17T05:24:13.043Z,1015.87
2016-05-17T05:25:13.066Z,1015.89
2016-05-17T05:26:13.086Z,1015.89
2016-05-17T05:27:13.123Z,1015.79
2016-05-17T05:28:13.158Z,1015.81
2016-05-17T05:29:32.370Z,1015.99
2016-05-17T05:30:13.183Z,1016.02
2016-05-17T05:32:42.068Z,1015.79
2016-05-17T05:33:16.415Z,1015.9
2016-05-17T05:34:16.433Z,1016.06
2016-05-17T05:35:16.453Z,1016.11
2016-05-17T05:36:16.487Z,1016.09
2016-05-17T05:37:35.693Z,1015.99
2016-05-17T05:38:29.258Z,1015.92
2016-05-17T05:39:16.543Z,1015.88
2016-05-17T05:40:16.560Z,1015.94
2016-05-17T05:41:16.595Z,1015.98
2016-05-17T05:42:16.613Z,1016.17
2016-05-17T05:43:16.632Z,1016.08
2016-05-17T05:44:16.649Z,1016.06
2016-05-17T05:45:16.684Z,1016.06
2016-05-17T05:46:16.702Z,1016.2
2016-05-17T05:47:16.736Z,1016.09
2016-05-17T05:48:18.161Z,1016.06
2016-05-17T05:49:42.459Z,1016.12
2016-05-17T05:50:26.306Z,1016.27
2016-05-17T05:51:26.293Z,1016.25
2016-05-17T05:52:26.328Z,1016.27
2016-05-17T05:53:26.331Z,1016.26
2016-05-17T05:54:41.584Z,1016.22
2016-05-17T05:56:07.289Z,1016.28
2016-05-17T05:56:41.620Z,1016.43
2016-05-17T05:57:41.654Z,1016.16
2016-05-17T05:58:41.687Z,1016.28
2016-05-17T05:59:51.034Z,1016.22
2016-05-17T06:00:51.053Z,1016.27
2016-05-17T06:02:31.980Z,1016.17
2016-05-17T06:03:06.323Z,1016.17
2016-05-17T06:04:06.342Z,1016.21
2016-05-17T06:05:21.441Z,1016.13
2016-05-17T06:06:21.474Z,1016.17
2016-05-17T06:07:21.493Z,1016.16
2016-05-17T06:08:21.511Z,1016.17
2016-05-17T06:09:47.233Z,1016.26
2016-05-17T06:10:21.563Z,1016.05
2016-05-17T06:11:21.613Z,1016.19
2016-05-17T06:12:21.615Z,1016.15
2016-05-17T06:13:21.649Z,1016.2
2016-05-17T06:14:21.684Z,1016.16
2016-05-17T06:15:34.437Z,1016.17
2016-05-17T06:16:21.720Z,1016.06
2016-05-17T06:17:21.754Z,1016.19
2016-05-17T06:18:21.773Z,1016.17
2016-05-17T06:19:40.993Z,1016.17
2016-05-17T06:20:24.841Z,1016.19
2016-05-17T06:21:24.859Z,1016.15
2016-05-17T06:22:25.251Z,1016.15
2016-05-17T06:23:24.895Z,1016.16
2016-05-17T06:24:37.664Z,1016.16
2016-05-17T06:25:24.948Z,1016.32
2016-05-17T06:26:24.982Z,1016.39
2016-05-17T06:27:34.641Z,1016.48
2016-05-17T06:28:44.283Z,1016.49
2016-05-17T06:29:44.303Z,1016.42
2016-05-17T06:30:44.336Z,1016.54
2016-05-17T06:31:44.339Z,1016.54
2016-05-17T06:32:44.373Z,1016.67
2016-05-17T06:34:03.611Z,1016.68
2016-05-17T06:34:44.425Z,1016.47
2016-05-17T06:35:44.444Z,1016.3
2016-05-17T06:36:57.322Z,1016.37
2016-05-17T06:37:44.496Z,1016.45
2016-05-17T06:38:44.530Z,1016.51
2016-05-17T06:39:44.547Z,1016.64
2016-05-17T06:40:57.316Z,1016.77
2016-05-17T06:41:47.632Z,1016.37
2016-05-17T06:42:44.635Z,1016.38
2016-05-17T06:44:00.215Z,1016.37
2016-05-17T06:44:47.530Z,1016.42
2016-05-17T06:46:06.752Z,1016.41
2016-05-17T06:47:00.316Z,1016.47
2016-05-17T06:49:03.509Z,1016.45
2016-05-17T06:49:57.278Z,1016.38
2016-05-17T06:50:57.312Z,1016.42
2016-05-17T06:51:57.330Z,1016.53
2016-05-17T06:52:57.411Z,1016.51
2016-05-17T06:53:57.382Z,1016.43
2016-05-17T06:54:57.417Z,1016.42
2016-05-17T06:55:57.419Z,1016.41
2016-05-17T06:56:57.468Z,1016.39
2016-05-17T06:57:57.486Z,1016.49
2016-05-17T06:58:57.506Z,1016.5
2016-05-17T06:59:57.523Z,1016.5
2016-05-17T07:00:57.558Z,1016.47
2016-05-17T07:01:57.591Z,1016.48
2016-05-17T07:02:57.609Z,1016.46
2016-05-17T07:03:57.644Z,1016.43
2016-05-17T07:04:57.661Z,1016.54
2016-05-17T07:06:16.883Z,1016.44
2016-05-17T07:06:57.699Z,1016.54
2016-05-17T07:07:57.733Z,1016.86
2016-05-17T07:08:57.766Z,1016.59
2016-05-17T07:09:57.785Z,1016.49
2016-05-17T07:11:13.037Z,1016.51
2016-05-17T07:12:13.071Z,1016.5
2016-05-17T07:13:13.090Z,1016.38
2016-05-17T07:14:13.108Z,1016.35
2016-05-17T07:15:13.141Z,1016.49
2016-05-17T07:16:13.144Z,1016.48
2016-05-17T07:17:13.194Z,1016.41
2016-05-17T07:18:13.213Z,1016.43
2016-05-17T07:19:13.215Z,1016.42
2016-05-17T07:20:32.454Z,1016.44
2016-05-17T07:21:32.504Z,1016.45
2016-05-17T07:23:41.509Z,1016.46
2016-05-17T07:24:28.794Z,1016.42
2016-05-17T07:25:32.093Z,1016.46
2016-05-17T07:26:32.096Z,1016.49
2016-05-17T07:27:32.115Z,1016.5
2016-05-17T07:28:32.133Z,1016.55
2016-05-17T07:29:32.167Z,1016.62
2016-05-17T07:30:32.184Z,1016.61
2016-05-17T07:31:32.203Z,1016.55
2016-05-17T07:32:32.237Z,1016.55
2016-05-17T07:33:32.256Z,1016.5
2016-05-17T07:34:33.695Z,1016.49
2016-05-17T07:35:45.027Z,1016.47
2016-05-17T07:36:32.467Z,1016.45
2016-05-17T07:39:13.456Z,1016.48
2016-05-17T07:39:47.819Z,1016.47
2016-05-17T07:41:50.996Z,1016.5
2016-05-17T07:42:51.030Z,1016.54
2016-05-17T07:43:51.094Z,1016.57
2016-05-17T07:44:51.082Z,1016.53
2016-05-17T07:45:51.084Z,1016.47
2016-05-17T07:46:51.119Z,1016.48
2016-05-17T07:47:51.153Z,1016.43
2016-05-17T07:48:51.155Z,1016.49
2016-05-17T07:50:10.377Z,1016.52
2016-05-17T07:50:54.457Z,1016.51
2016-05-17T07:52:23.057Z,1016.44
2016-05-17T07:53:06.901Z,1016.44
2016-05-17T07:54:06.918Z,1016.44
2016-05-17T07:55:19.671Z,1016.48
2016-05-17T07:56:06.970Z,1016.44
2016-05-17T07:57:07.037Z,1016.39
2016-05-17T07:58:07.007Z,1016.44
2016-05-17T08:00:22.156Z,1016.39
2016-05-17T08:01:22.175Z,1016.43
2016-05-17T08:02:23.615Z,1016.43
2016-05-17T08:03:41.430Z,1016.44
2016-05-17T08:04:22.261Z,1016.45
2016-05-17T08:05:47.950Z,1016.36
2016-05-17T08:06:31.798Z,1016.4
2016-05-17T08:07:31.816Z,1016.4
2016-05-17T08:08:31.849Z,1016.44
2016-05-17T08:09:31.869Z,1016.44
2016-05-17T08:10:31.886Z,1016.45
2016-05-17T08:11:31.905Z,1016.46
2016-05-17T08:12:31.939Z,1016.45
2016-05-17T08:13:31.972Z,1016.51
2016-05-17T08:14:31.975Z,1016.51
2016-05-17T08:15:44.743Z,1016.48
2016-05-17T08:16:44.762Z,1016.44
2016-05-17T08:17:57.733Z,1016.46
2016-05-17T08:18:32.079Z,1016.47
2016-05-17T08:19:32.113Z,1016.49
2016-05-17T08:20:47.210Z,1016.5
2016-05-17T08:21:47.243Z,1016.51
2016-05-17T08:22:47.279Z,1016.49
2016-05-17T08:24:02.546Z,1016.49
2016-05-17T08:25:02.565Z,1016.5
2016-05-17T08:26:02.582Z,1016.48
2016-05-17T08:27:02.601Z,1016.45
2016-05-17T08:28:02.620Z,1016.48
2016-05-17T08:29:15.387Z,1016.49
2016-05-17T08:30:02.687Z,1016.46
2016-05-17T08:31:02.706Z,1016.38
2016-05-17T08:32:02.740Z,1016.44
2016-05-17T08:33:02.758Z,1016.43
2016-05-17T08:34:02.792Z,1016.41
2016-05-17T08:35:02.811Z,1016.38
2016-05-17T08:36:02.845Z,1016.37
2016-05-17T08:37:02.878Z,1016.37
2016-05-17T08:38:15.615Z,1016.31
2016-05-17T08:39:02.915Z,1016.36
2016-05-17T08:40:28.608Z,1016.4
2016-05-17T08:41:05.998Z,1016.43
2016-05-17T08:42:02.986Z,1016.35
2016-05-17T08:43:18.160Z,1016.34
2016-05-17T08:44:18.178Z,1016.39
2016-05-17T08:45:19.618Z,1016.42
2016-05-17T08:46:30.968Z,1016.39
2016-05-17T08:47:18.249Z,1016.4
2016-05-17T08:48:43.941Z,1016.31
2016-05-17T08:49:27.913Z,1016.41
2016-05-17T08:50:27.946Z,1016.46
2016-05-17T08:51:40.699Z,1016.46
2016-05-17T08:52:27.984Z,1016.36
2016-05-17T08:53:28.002Z,1016.35
2016-05-17T08:54:40.771Z,1016.39
2016-05-17T08:55:28.054Z,1016.43
2016-05-17T08:56:28.088Z,1016.45
2016-05-17T08:57:28.107Z,1016.51
2016-05-17T08:58:28.140Z,1016.47
2016-05-17T08:59:28.159Z,1016.4
2016-05-17T09:00:28.177Z,1016.39
2016-05-17T09:01:28.211Z,1016.37
2016-05-17T09:02:28.229Z,1016.43
2016-05-17T09:03:28.247Z,1016.43
2016-05-17T09:04:28.281Z,1016.46
2016-05-17T09:05:43.644Z,1016.33
2016-05-17T09:06:43.536Z,1016.36
2016-05-17T09:07:43.664Z,1016.37
2016-05-17T09:08:43.589Z,1016.4
2016-05-17T09:09:43.623Z,1016.45
2016-05-17T09:10:43.642Z,1016.39
2016-05-17T09:11:43.660Z,1016.39
2016-05-17T09:12:56.413Z,1016.42
2016-05-17T09:13:45.133Z,1016.48
2016-05-17T09:14:43.731Z,1016.43
2016-05-17T09:15:59.014Z,1016.46
2016-05-17T09:16:59.049Z,1016.42
2016-05-17T09:18:11.801Z,1016.42
2016-05-17T09:19:02.132Z,1016.42
2016-05-17T09:19:59.102Z,1016.4
2016-05-17T09:20:59.137Z,1016.42
2016-05-17T09:21:59.155Z,1016.43
2016-05-17T09:23:09.018Z,1016.45
2016-05-17T09:24:09.036Z,1016.42
2016-05-17T09:25:12.101Z,1016.46
2016-05-17T09:26:21.823Z,1016.43
2016-05-17T09:27:09.107Z,1016.43
2016-05-17T09:28:09.140Z,1016.48
2016-05-17T09:29:09.159Z,1016.49
2016-05-17T09:30:18.802Z,1016.46
2016-05-17T09:31:18.836Z,1016.48
2016-05-17T09:32:38.060Z,1016.46
2016-05-17T09:33:18.873Z,1016.45
2016-05-17T09:34:18.907Z,1016.5
2016-05-17T09:35:31.662Z,1016.46
2016-05-17T09:36:18.959Z,1016.51
2016-05-17T09:37:38.183Z,1016.49
2016-05-17T09:38:19.026Z,1016.49
2016-05-17T09:39:19.029Z,1016.45
2016-05-17T09:40:19.064Z,1016.44
2016-05-17T09:41:19.081Z,1016.51
2016-05-17T09:42:19.100Z,1016.4
2016-05-17T09:43:19.134Z,1016.45
2016-05-17T09:44:31.905Z,1016.48
2016-05-17T09:45:19.186Z,1016.42
2016-05-17T09:46:19.204Z,1016.48
2016-05-17T09:47:19.222Z,1016.46
2016-05-17T09:48:19.257Z,1016.45
2016-05-17T09:49:19.290Z,1016.45
2016-05-17T09:50:19.308Z,1016.41
2016-05-17T09:51:19.327Z,1016.37
2016-05-17T09:52:19.361Z,1016.34
2016-05-17T09:53:38.633Z,1016.41
2016-05-17T09:54:19.414Z,1016.4
2016-05-17T09:55:45.122Z,1016.38
2016-05-17T09:56:19.466Z,1016.45
2016-05-17T09:58:34.740Z,1016.39
2016-05-17T09:59:34.742Z,1016.38
2016-05-17T10:00:34.823Z,1016.3
2016-05-17T10:01:34.795Z,1016.32
2016-05-17T10:02:36.234Z,1016.29
2016-05-17T10:04:38.084Z,1016.22
2016-05-17T10:05:38.101Z,1016.3
2016-05-17T10:06:49.558Z,1016.32
2016-05-17T10:07:49.592Z,1016.39
2016-05-17T10:09:02.329Z,1016.38
2016-05-17T10:10:02.362Z,1016.39
2016-05-17T10:10:49.662Z,1016.36
2016-05-17T10:11:49.680Z,1016.33
2016-05-17T10:13:05.481Z,1016.33
2016-05-17T10:13:52.764Z,1016.37
2016-05-17T10:14:52.798Z,1016.35
2016-05-17T10:15:54.239Z,1016.37
2016-05-17T10:16:52.835Z,1016.31
2016-05-17T10:17:52.869Z,1016.32
2016-05-17T10:18:52.887Z,1016.31
2016-05-17T10:21:08.221Z,1016.33
2016-05-17T10:22:08.552Z,1016.35
2016-05-17T10:23:08.272Z,1016.4
2016-05-17T10:24:27.494Z,1016.37
2016-05-17T10:25:24.199Z,1016.37
2016-05-17T10:26:24.219Z,1016.38
2016-05-17T10:27:27.268Z,1016.39
2016-05-17T10:28:36.993Z,1016.38
2016-05-17T10:29:24.289Z,1016.39
2016-05-17T10:30:24.307Z,1016.4
2016-05-17T10:31:27.497Z,1016.39
2016-05-17T10:32:27.516Z,1016.44
2016-05-17T10:33:37.193Z,1016.41
2016-05-17T10:34:37.196Z,1016.42
2016-05-17T10:35:37.229Z,1016.43
2016-05-17T10:36:37.466Z,1016.42
2016-05-17T10:37:37.267Z,1016.44
2016-05-17T10:38:37.300Z,1016.41
2016-05-17T10:39:37.318Z,1016.4
2016-05-17T10:40:37.368Z,1016.37
2016-05-17T10:41:40.403Z,1016.37
2016-05-17T10:42:50.123Z,1016.33
2016-05-17T10:43:37.423Z,1016.35
2016-05-17T10:45:03.129Z,1016.29
2016-05-17T10:45:53.209Z,1016.3
2016-05-17T10:46:46.962Z,1016.28
2016-05-17T10:47:46.997Z,1016.3
2016-05-17T10:48:46.999Z,1016.3
2016-05-17T10:49:47.033Z,1016.28
2016-05-17T10:51:47.336Z,1016.29
2016-05-17T10:52:47.103Z,1016.34
2016-05-17T10:54:02.216Z,1016.31
2016-05-17T10:55:02.249Z,1016.32
2016-05-17T10:57:17.364Z,1016.31
2016-05-17T10:58:17.398Z,1016.29
2016-05-17T10:59:17.401Z,1016.29
2016-05-17T11:00:17.435Z,1016.29
2016-05-17T11:01:17.469Z,1016.23
2016-05-17T11:02:17.502Z,1016.27
2016-05-17T11:03:17.521Z,1016.25
2016-05-17T11:04:30.276Z,1016.28
2016-05-17T11:05:30.310Z,1016.2
2016-05-17T11:06:17.607Z,1016.23
2016-05-17T11:07:43.300Z,1016.23
2016-05-17T11:08:17.643Z,1016.21
2016-05-17T11:10:17.696Z,1016.18
2016-05-17T11:11:17.730Z,1016.21
2016-05-17T11:12:17.748Z,1016.18
2016-05-17T11:13:17.844Z,1016.19
2016-05-17T11:14:17.800Z,1016.22
2016-05-17T11:15:17.834Z,1016.21
2016-05-17T11:16:17.852Z,1016.17
2016-05-17T11:17:17.886Z,1016.18
2016-05-17T11:18:17.920Z,1016.17
2016-05-17T11:19:17.923Z,1016.25
2016-05-17T11:20:17.958Z,1016.17
2016-05-17T11:21:17.976Z,1016.19
2016-05-17T11:22:37.355Z,1016.25
2016-05-17T11:23:19.558Z,1016.25
2016-05-17T11:24:18.172Z,1016.26
2016-05-17T11:25:18.143Z,1016.23
2016-05-17T11:26:18.161Z,1016.24
2016-05-17T11:27:18.180Z,1016.24
2016-05-17T11:28:21.197Z,1016.21
2016-05-17T11:29:30.702Z,1016.22
2016-05-17T11:30:30.721Z,1016.25
2016-05-17T11:31:30.755Z,1016.23
2016-05-17T11:32:30.774Z,1016.3
2016-05-17T11:33:32.213Z,1016.26
2016-05-17T11:34:56.498Z,1016.25
2016-05-17T11:35:40.532Z,1016.29
2016-05-17T11:36:40.550Z,1016.28
2016-05-17T11:37:40.583Z,1016.32
2016-05-17T11:39:06.274Z,1016.39
2016-05-17T11:39:50.245Z,1016.37
2016-05-17T11:41:15.951Z,1016.34
2016-05-17T11:41:59.939Z,1016.33
2016-05-17T11:42:59.956Z,1016.37
2016-05-17T11:43:59.990Z,1016.28
2016-05-17T11:45:00.024Z,1016.27
2016-05-17T11:46:12.761Z,1016.28
2016-05-17T11:47:00.061Z,1016.3
2016-05-17T11:48:15.142Z,1016.26
2016-05-17T11:49:15.160Z,1016.32
2016-05-17T11:50:15.194Z,1016.33
2016-05-17T11:51:27.931Z,1016.4
2016-05-17T11:52:15.699Z,1016.36
2016-05-17T11:54:30.502Z,1016.38
2016-05-17T11:55:30.504Z,1016.36
2016-05-17T11:57:45.777Z,1016.34
2016-05-17T11:58:45.797Z,1016.33
2016-05-17T11:59:45.816Z,1016.4
2016-05-17T12:00:47.254Z,1016.39
2016-05-17T12:01:45.867Z,1016.31
2016-05-17T12:02:49.073Z,1016.33
2016-05-17T12:04:14.763Z,1016.36
2016-05-17T12:05:25.968Z,1016.31
2016-05-17T12:06:09.800Z,1016.28
2016-05-17T12:07:09.834Z,1016.27
2016-05-17T12:08:09.867Z,1016.29
2016-05-17T12:09:22.604Z,1016.33
2016-05-17T12:11:37.909Z,1016.38
2016-05-17T12:12:50.678Z,1016.36
2016-05-17T12:13:57.165Z,1016.39
2016-05-17T12:14:37.980Z,1016.32
2016-05-17T12:16:47.486Z,1016.28
2016-05-17T12:17:47.503Z,1016.28
2016-05-17T12:18:47.522Z,1016.27
2016-05-17T12:19:47.556Z,1016.24
2016-05-17T12:20:50.622Z,1016.22
2016-05-17T12:21:47.811Z,1016.21
2016-05-17T12:23:00.361Z,1016.2
2016-05-17T12:24:00.379Z,1016.22
2016-05-17T12:25:13.335Z,1016.19
2016-05-17T12:26:13.369Z,1016.2
2016-05-17T12:27:28.622Z,1016.23
2016-05-17T12:28:28.640Z,1016.22
2016-05-17T12:29:31.705Z,1016.25
2016-05-17T12:30:41.446Z,1016.22
2016-05-17T12:31:28.727Z,1016.23
2016-05-17T12:32:47.951Z,1016.19
2016-05-17T12:33:28.763Z,1016.21
2016-05-17T12:35:31.956Z,1016.2
2016-05-17T12:36:31.974Z,1016.16
2016-05-17T12:37:32.461Z,1016.14
2016-05-17T12:39:38.673Z,1016.13
2016-05-17T12:40:38.690Z,1016.15
2016-05-17T12:41:38.725Z,1016.08
2016-05-17T12:42:38.743Z,1016.04
2016-05-17T12:43:38.777Z,1016.06
2016-05-17T12:44:38.795Z,1016.02
2016-05-17T12:45:38.814Z,1016
2016-05-17T12:46:38.848Z,1016.02
2016-05-17T12:47:40.287Z,1016.01
2016-05-17T12:48:38.930Z,1016
2016-05-17T12:50:04.589Z,1016.05
2016-05-17T12:50:38.936Z,1016.08
2016-05-17T12:51:38.955Z,1016.12
2016-05-17T12:53:07.894Z,1016.07
2016-05-17T12:53:48.694Z,1016.1
2016-05-17T12:54:48.728Z,1016.11
2016-05-17T12:55:48.763Z,1016.08
2016-05-17T12:56:51.812Z,1016.08
2016-05-17T12:57:50.221Z,1016.06
2016-05-17T12:59:08.020Z,1016.04
2016-05-17T12:59:48.851Z,1016.09
2016-05-17T13:00:48.885Z,1015.99